Time;durP1;ratioP1;P1;durP2;ratioP2;P2;SDS_P1;SDS_P2;PMS_P1;PMS_P2;Temp;Humidity;BMP_temperature;BMP_pressure;BME280_temperature;BME280_humidity;BME280_pressure;Samples;Min_cycle;Max_cycle;Signal;HPM_P1;HPM_P2
2023/07/12 00:00:46;;;;;;;2.63;2.20;;;;;;;21.72;94.82;98354.19;5075665;28;38959;-78
2023/07/12 00:03:15;;;;;;;3.13;2.60;;;;;;;21.74;94.31;98373.72;5093740;28;41904;-78
2023/07/12 00:05:44;;;;;;;4.20;2.97;;;;;;;21.74;92.79;98394.44;5072490;28;41471;-78
2023/07/12 00:08:19;;;;;;;4.37;2.30;;;;;;;21.73;95.37;98395.47;5092803;28;41857;-79
2023/07/12 00:10:49;;;;;;;2.67;2.43;;;;;;;21.61;94.90;98384.25;5091338;28;38653;-78
2023/07/12 00:13:19;;;;;;;3.63;3.07;;;;;;;21.56;94.19;98375.00;5092510;28;40986;-78
2023/07/12 00:15:48;;;;;;;4.60;2.87;;;;;;;21.55;94.22;98358.00;5091749;28;42761;-77
2023/07/12 00:18:18;;;;;;;2.93;2.63;;;;;;;21.52;94.68;98361.03;5093559;28;42135;-76
2023/07/12 00:20:47;;;;;;;4.40;2.97;;;;;;;21.51;94.41;98340.53;5092004;28;40770;-78
2023/07/12 00:23:16;;;;;;;3.37;2.80;;;;;;;21.55;94.15;98347.22;5075454;28;41823;-78
2023/07/12 00:25:45;;;;;;;3.57;2.53;;;;;;;21.56;94.04;98365.06;5075108;28;41815;-79
2023/07/12 00:28:22;;;;;;;2.77;2.40;;;;;;;21.58;93.79;98346.88;5093632;28;42501;-78
2023/07/12 00:30:50;;;;;;;4.93;3.00;;;;;;;21.55;94.54;98319.44;5075002;28;38995;-78
2023/07/12 00:33:19;;;;;;;4.60;2.43;;;;;;;21.59;94.21;98309.97;5092084;28;40943;-79
2023/07/12 00:35:48;;;;;;;3.57;2.80;;;;;;;21.60;93.20;98307.09;5074988;28;41785;-78
2023/07/12 00:38:19;;;;;;;3.40;3.10;;;;;;;21.59;93.68;98310.81;5075068;28;41996;-79
2023/07/12 00:41:09;;;;;;;5.53;3.40;;;;;;;21.60;94.13;98315.19;5091645;28;40104;-79
2023/07/12 00:43:40;;;;;;;4.17;3.60;;;;;;;21.61;95.60;98297.16;5092138;28;41457;-79
2023/07/12 00:46:15;;;;;;;6.40;4.37;;;;;;;21.59;95.39;98291.94;5092474;28;43674;-78
2023/07/12 00:48:47;;;;;;;5.67;4.00;;;;;;;21.61;95.37;98271.06;5088909;28;42898;-78
2023/07/12 00:51:33;;;;;;;4.10;3.70;;;;;;;21.62;94.51;98245.78;5091599;28;39914;-79
2023/07/12 00:54:01;;;;;;;5.80;3.87;;;;;;;21.66;94.75;98262.41;5075152;28;40822;-79
2023/07/12 00:56:29;;;;;;;5.57;4.40;;;;;;;21.63;94.18;98262.81;5074689;28;42911;-78
2023/07/12 00:59:05;;;;;;;4.07;3.67;;;;;;;21.58;94.25;98240.94;5091870;28;40910;-78
2023/07/12 01:01:36;;;;;;;4.40;4.00;;;;;;;21.68;95.89;98255.84;5073939;28;40083;-79
2023/07/12 01:04:04;;;;;;;7.07;4.47;;;;;;;21.70;95.97;98261.88;5088847;28;42764;-79
2023/07/12 01:06:32;;;;;;;4.40;3.90;;;;;;;21.73;95.05;98252.59;5074538;28;43047;-78
2023/07/12 01:09:06;;;;;;;5.57;4.37;;;;;;;21.78;94.63;98255.56;5091691;28;41344;-78
2023/07/12 01:11:33;;;;;;;4.67;3.83;;;;;;;21.52;93.51;98205.59;5074406;28;40128;-78
2023/07/12 01:14:02;;;;;;;5.00;4.00;;;;;;;21.60;93.69;98209.25;5091576;28;41913;-78
2023/07/12 01:16:30;;;;;;;5.57;3.93;;;;;;;21.85;93.18;98270.88;5075272;28;42810;-78
2023/07/12 01:18:58;;;;;;;3.83;3.37;;;;;;;21.84;93.17;98271.03;5076103;28;42335;-78
2023/07/12 01:21:31;;;;;;;4.93;4.23;;;;;;;21.88;92.70;98283.97;5074593;28;39332;-78
2023/07/12 01:23:59;;;;;;;3.73;3.33;;;;;;;21.91;92.87;98274.69;5088668;28;42808;-78
2023/07/12 01:26:34;;;;;;;4.07;3.67;;;;;;;21.68;93.16;98231.56;5074236;28;43011;-79
2023/07/12 01:29:05;;;;;;;4.80;3.57;;;;;;;21.94;93.28;98286.97;5088423;28;42758;-78
2023/07/12 01:31:33;;;;;;;6.23;4.23;;;;;;;21.91;93.18;98282.75;5090864;28;40763;-78
2023/07/12 01:34:01;;;;;;;5.73;3.47;;;;;;;21.86;93.22;98296.81;5074135;28;40692;-77
2023/07/12 01:36:32;;;;;;;5.40;3.80;;;;;;;21.86;93.39;98307.59;5090875;28;42078;-78
2023/07/12 01:39:02;;;;;;;5.63;3.87;;;;;;;21.86;93.83;98321.06;5091475;28;41351;-77
2023/07/12 01:41:30;;;;;;;5.57;3.70;;;;;;;21.86;93.50;98323.75;5073870;28;38987;-78
2023/07/12 01:43:58;;;;;;;5.23;3.20;;;;;;;21.84;93.14;98317.72;5090799;28;40735;-77
2023/07/12 01:46:27;;;;;;;4.90;3.73;;;;;;;21.64;92.39;98273.38;5073629;28;41882;-78
2023/07/12 01:48:55;;;;;;;3.57;3.27;;;;;;;21.84;92.23;98298.84;5073861;28;41306;-77
2023/07/12 01:51:27;;;;;;;5.00;3.00;;;;;;;21.88;92.18;98292.03;5073566;28;40023;-78
2023/07/12 01:53:56;;;;;;;4.03;2.87;;;;;;;21.85;92.26;98278.13;5090733;28;42555;-77
2023/07/12 01:56:24;;;;;;;6.20;3.00;;;;;;;21.83;92.45;98286.38;5092087;28;43944;-77
2023/07/12 01:58:53;;;;;;;5.40;2.97;;;;;;;21.79;91.27;98273.44;5073742;28;41083;-77
2023/07/12 02:01:21;;;;;;;3.10;2.53;;;;;;;21.78;91.33;98258.28;5090803;28;39965;-77
2023/07/12 02:03:48;;;;;;;5.57;3.10;;;;;;;21.66;90.75;98241.69;5073545;28;41603;-76
2023/07/12 02:06:17;;;;;;;3.30;3.00;;;;;;;21.72;90.84;98246.38;5090380;28;43603;-76
2023/07/12 02:08:45;;;;;;;3.00;2.70;;;;;;;21.69;90.56;98252.13;5090584;28;41227;-77
2023/07/12 02:11:16;;;;;;;4.23;2.87;;;;;;;21.57;90.65;98225.78;5090276;28;39925;-77
2023/07/12 02:13:43;;;;;;;3.07;2.80;;;;;;;21.67;90.19;98254.16;5089528;28;42265;-77
2023/07/12 02:16:11;;;;;;;4.80;3.27;;;;;;;21.55;90.00;98238.59;5073119;28;41937;-76
2023/07/12 02:18:39;;;;;;;3.90;2.70;;;;;;;21.65;89.51;98260.75;5090033;28;42204;-77
2023/07/12 02:21:06;;;;;;;5.43;3.10;;;;;;;21.65;89.42;98250.78;5090355;28;40041;-77
2023/07/12 02:23:35;;;;;;;2.57;2.33;;;;;;;21.66;89.19;98257.88;5091821;28;41909;-76
2023/07/12 02:26:04;;;;;;;3.13;2.57;;;;;;;21.55;89.69;98225.97;5090121;28;42898;-77
2023/07/12 02:28:33;;;;;;;3.83;3.27;;;;;;;21.62;89.35;98235.00;5090574;28;43199;-77
2023/07/12 02:31:19;;;;;;;3.17;2.87;;;;;;;21.63;89.40;98242.09;5090117;28;39945;-77
2023/07/12 02:33:48;;;;;;;5.30;3.57;;;;;;;21.49;89.26;98221.31;5089890;28;41505;-77
2023/07/12 02:36:17;;;;;;;3.00;2.63;;;;;;;21.57;89.03;98237.41;5091456;28;43781;-77
2023/07/12 02:38:46;;;;;;;3.30;2.90;;;;;;;21.55;89.63;98238.59;5091454;28;42010;-78
2023/07/12 02:41:14;;;;;;;4.17;2.70;;;;;;;21.54;88.92;98243.13;5089893;28;40898;-77
2023/07/12 02:43:43;;;;;;;3.10;2.80;;;;;;;21.52;88.87;98245.16;5073012;28;40877;-77
2023/07/12 02:46:11;;;;;;;2.83;2.27;;;;;;;21.52;88.70;98242.47;5089906;28;43070;-77
2023/07/12 02:48:39;;;;;;;2.73;2.33;;;;;;;21.47;89.15;98232.25;5090082;28;41220;-76
2023/07/12 02:51:06;;;;;;;5.30;2.80;;;;;;;21.47;89.35;98232.25;5089625;28;39061;-78
2023/07/12 02:53:34;;;;;;;2.60;2.40;;;;;;;21.46;89.29;98229.75;5091509;28;41710;-76
2023/07/12 02:56:03;;;;;;;2.70;2.30;;;;;;;21.44;88.40;98237.16;5072727;28;42341;-77
2023/07/12 02:58:31;;;;;;;3.10;2.70;;;;;;;21.43;88.03;98240.88;5090002;28;43186;-77
2023/07/12 03:01:00;;;;;;;3.27;2.70;;;;;;;21.42;88.27;98239.19;5089937;28;40654;-77
2023/07/12 03:03:28;;;;;;;2.40;2.20;;;;;;;21.42;87.76;98244.56;5091167;28;41725;-77
2023/07/12 03:05:56;;;;;;;2.33;2.13;;;;;;;21.39;88.53;98244.94;5072845;28;41948;-77
2023/07/12 03:08:24;;;;;;;2.70;2.50;;;;;;;21.38;87.97;98244.13;5091026;28;41781;-77
2023/07/12 03:10:51;;;;;;;2.63;2.20;;;;;;;21.38;87.82;98237.88;5072479;28;38810;-76
2023/07/12 03:13:19;;;;;;;3.90;2.43;;;;;;;21.35;87.92;98249.84;5072938;28;41916;-76
2023/07/12 03:15:46;;;;;;;3.60;2.90;;;;;;;21.38;88.10;98237.88;5089498;28;42580;-78
2023/07/12 03:18:15;;;;;;;4.90;2.70;;;;;;;21.28;88.40;98237.25;5089884;28;42513;-76
2023/07/12 03:20:43;;;;;;;4.13;2.60;;;;;;;21.32;88.12;98244.81;5072426;28;38968;-77
2023/07/12 03:23:11;;;;;;;2.77;2.13;;;;;;;21.37;88.23;98253.22;5089499;28;41895;-76
2023/07/12 03:25:38;;;;;;;4.90;2.20;;;;;;;21.06;87.91;98203.88;5092393;28;42700;-77
2023/07/12 03:28:06;;;;;;;2.90;2.50;;;;;;;21.37;88.60;98255.06;5076315;28;41532;-77
2023/07/12 03:30:34;;;;;;;2.20;2.00;;;;;;;21.37;88.00;98260.47;5076244;28;40137;-76
2023/07/12 03:33:02;;;;;;;2.40;2.20;;;;;;;21.36;88.36;98267.69;5093184;28;42607;-77
2023/07/12 03:35:31;;;;;;;2.60;2.33;;;;;;;21.33;88.09;98254.56;5075868;28;42931;-77
2023/07/12 03:37:59;;;;;;;2.87;2.50;;;;;;;21.36;88.21;98259.63;5093063;28;41054;-77
2023/07/12 03:40:27;;;;;;;3.03;2.23;;;;;;;21.35;88.35;98260.63;5093990;28;39712;-77
2023/07/12 03:42:55;;;;;;;2.43;2.20;;;;;;;21.37;88.04;98268.53;5075909;28;40886;-77
2023/07/12 03:45:23;;;;;;;5.87;2.30;;;;;;;21.40;87.97;98274.38;5093955;28;43742;-77
2023/07/12 03:47:50;;;;;;;3.53;2.40;;;;;;;21.46;87.29;98272.84;5092849;28;42907;-77
2023/07/12 03:50:18;;;;;;;2.03;1.83;;;;;;;21.54;87.85;98270.09;5092916;28;40946;-77
2023/07/12 03:52:47;;;;;;;2.83;2.17;;;;;;;21.33;88.15;98211.47;5092878;28;41863;-77
2023/07/12 03:55:15;;;;;;;2.23;2.03;;;;;;;21.67;87.27;98251.47;5093939;28;42715;-78
2023/07/12 03:57:42;;;;;;;2.37;2.10;;;;;;;21.74;86.60;98249.75;5092786;28;42316;-78
2023/07/12 04:00:12;;;;;;;2.13;1.80;;;;;;;21.77;86.46;98243.97;5075694;28;40313;-78
2023/07/12 04:02:44;;;;;;;4.00;2.07;;;;;;;21.74;86.44;98236.25;5090731;28;42316;-78
2023/07/12 04:05:11;;;;;;;3.33;2.00;;;;;;;21.77;86.20;98248.50;5093536;28;43446;-77
2023/07/12 04:07:39;;;;;;;2.67;2.17;;;;;;;21.88;85.78;98257.00;5092594;28;42057;-77
2023/07/12 04:10:09;;;;;;;2.00;1.90;;;;;;;;;;5075543;28;38764;-79
2023/07/12 04:12:37;;;;;;;2.37;2.10;;;;;;;21.83;85.64;98254.03;5092602;28;42612;-78
2023/07/12 04:15:05;;;;;;;4.53;2.60;;;;;;;21.86;86.13;98259.06;5092898;28;42926;-78
2023/07/12 04:17:33;;;;;;;3.10;2.40;;;;;;;21.87;85.96;98259.91;5075612;28;41122;-78
2023/07/12 04:20:01;;;;;;;4.03;2.10;;;;;;;21.86;85.72;98261.75;5092360;28;40325;-78
2023/07/12 04:22:29;;;;;;;2.30;2.10;;;;;;;21.92;85.91;98262.03;5075176;28;41614;-78
2023/07/12 04:24:57;;;;;;;3.23;2.20;;;;;;;21.86;85.21;98256.38;5091908;28;43912;-77
2023/07/12 04:27:26;;;;;;;3.17;2.03;;;;;;;22.01;84.74;98274.44;5074974;28;41202;-77
2023/07/12 04:30:06;;;;;;;2.27;1.63;;;;;;;22.04;84.70;98282.19;5091886;28;40856;-77
2023/07/12 04:32:34;;;;;;;3.70;2.20;;;;;;;22.12;84.43;98292.91;5060220;28;40890;-78
2023/07/12 04:35:03;;;;;;;2.20;2.00;;;;;;;22.18;84.34;98290.31;5074776;28;42907;-78
2023/07/12 04:37:31;;;;;;;3.97;1.87;;;;;;;22.28;83.55;98298.13;5092267;28;41506;-78
2023/07/12 04:40:01;;;;;;;1.67;1.57;;;;;;;22.33;83.11;98297.59;5092919;28;39738;-78
2023/07/12 04:42:31;;;;;;;4.10;1.90;;;;;;;22.48;82.79;98307.38;5091684;28;42914;-79
2023/07/12 04:44:58;;;;;;;3.57;1.80;;;;;;;22.51;82.62;98312.41;5092546;28;42949;-78
2023/07/12 04:47:26;;;;;;;4.43;2.03;;;;;;;22.48;82.50;98318.19;5091864;28;41266;-78
2023/07/12 04:49:53;;;;;;;1.97;1.70;;;;;;;22.45;82.66;98313.16;5074781;28;38839;-78
2023/07/12 04:52:21;;;;;;;3.53;2.20;;;;;;;22.42;82.40;98312.66;5092906;28;41531;-78
2023/07/12 04:54:48;;;;;;;3.53;1.60;;;;;;;22.39;82.94;98296.84;5091186;28;42945;-77
2023/07/12 04:57:16;;;;;;;2.50;1.97;;;;;;;22.38;82.78;98295.16;5074743;28;42005;-77
2023/07/12 04:59:46;;;;;;;3.47;2.00;;;;;;;22.40;82.93;98293.13;5091571;28;41147;-77
2023/07/12 05:02:13;;;;;;;2.80;1.83;;;;;;;22.50;82.41;98307.22;5091559;28;40961;-76
2023/07/12 05:04:41;;;;;;;4.10;2.00;;;;;;;22.51;82.12;98301.59;5074386;28;42283;-78
2023/07/12 05:07:09;;;;;;;2.30;1.80;;;;;;;22.75;81.72;98321.28;5091683;28;42607;-77
2023/07/12 05:09:37;;;;;;;2.37;1.90;;;;;;;22.94;81.45;98323.44;5091662;28;40010;-78
2023/07/12 05:12:06;;;;;;;3.17;1.83;;;;;;;23.05;81.11;98312.16;5074618;28;41697;-77
2023/07/12 05:14:34;;;;;;;2.27;1.67;;;;;;;23.29;80.78;98328.03;5091124;28;42680;-77
2023/07/12 05:17:03;;;;;;;2.17;1.97;;;;;;;23.38;80.23;98304.44;5074590;28;42225;-77
2023/07/12 05:19:30;;;;;;;1.80;1.60;;;;;;;23.68;79.53;98321.44;5091390;28;38865;-78
2023/07/12 05:21:58;;;;;;;4.13;2.30;;;;;;;23.79;78.71;98320.09;5091293;28;40454;-77
2023/07/12 05:24:26;;;;;;;4.23;1.67;;;;;;;23.93;77.59;98341.69;5092567;28;42637;-78
2023/07/12 05:26:54;;;;;;;2.47;2.27;;;;;;;23.92;76.26;98322.94;5074192;28;41823;-78
2023/07/12 05:29:22;;;;;;;2.57;1.87;;;;;;;24.00;75.06;98337.16;5092726;28;40165;-78
2023/07/12 05:31:49;;;;;;;2.90;2.30;;;;;;;24.02;75.01;98341.53;5091280;28;41850;-77
2023/07/12 05:34:19;;;;;;;4.37;2.40;;;;;;;24.14;75.50;98342.69;5091267;28;42076;-78
2023/07/12 05:37:07;;;;;;;2.20;2.00;;;;;;;24.21;74.95;98324.66;5091667;28;43311;-78
2023/07/12 05:39:37;;;;;;;2.40;1.90;;;;;;;24.30;74.70;98342.44;5080330;28;39920;-78
2023/07/12 05:42:05;;;;;;;2.80;2.10;;;;;;;24.38;73.21;98350.41;5092183;28;42485;-78
2023/07/12 05:44:33;;;;;;;4.13;1.90;;;;;;;24.47;73.92;98353.84;5091756;28;42721;-78
2023/07/12 05:47:00;;;;;;;2.30;1.97;;;;;;;24.65;72.54;98351.47;5073813;28;41139;-78
2023/07/12 05:49:30;;;;;;;2.97;2.30;;;;;;;24.79;72.55;98355.09;5090684;28;39813;-78
2023/07/12 05:51:59;;;;;;;6.57;2.50;;;;;;;24.91;71.48;98356.22;5090314;28;41161;-77
2023/07/12 05:54:26;;;;;;;4.97;2.67;;;;;;;24.95;70.84;98355.66;5073744;28;41988;-78
2023/07/12 05:56:54;;;;;;;2.10;1.90;;;;;;;25.02;70.56;98352.97;5090904;28;42121;-78
2023/07/12 05:59:23;;;;;;;3.60;2.30;;;;;;;25.12;70.71;98356.16;5090703;28;40287;-78
2023/07/12 06:01:50;;;;;;;2.50;2.10;;;;;;;25.23;71.21;98360.16;5074022;28;41982;-78
2023/07/12 06:04:18;;;;;;;2.90;2.00;;;;;;;25.32;70.20;98354.41;5090451;28;43750;-78
2023/07/12 06:06:47;;;;;;;4.60;2.37;;;;;;;25.44;70.10;98368.22;5073750;28;41344;-77
2023/07/12 06:09:15;;;;;;;3.30;2.30;;;;;;;25.47;70.23;98356.13;5090546;28;38976;-79
2023/07/12 06:11:43;;;;;;;3.03;2.40;;;;;;;25.60;69.76;98377.84;5085631;28;40497;-85
2023/07/12 06:14:11;;;;;;;2.90;2.23;;;;;;;25.65;69.42;98391.69;5071933;28;41577;-80
2023/07/12 06:16:38;;;;;;;3.80;2.20;;;;;;;25.76;69.64;98385.66;5090578;28;42046;-79
2023/07/12 06:19:06;;;;;;;4.40;2.83;;;;;;;25.70;68.61;98353.94;5090642;28;39313;-80
2023/07/12 06:21:34;;;;;;;4.63;2.83;;;;;;;26.01;68.34;98381.34;5085236;28;40762;-89
2023/07/12 06:24:03;;;;;;;3.97;2.40;;;;;;;26.16;68.38;98389.31;5090277;28;41662;-85
2023/07/12 06:26:32;;;;;;;4.73;3.00;;;;;;;26.21;67.00;98385.97;5073356;28;42519;-84
2023/07/12 06:29:00;;;;;;;5.80;3.10;;;;;;;26.27;66.98;98402.25;5091903;28;39976;-84
2023/07/12 06:31:27;;;;;;;6.23;3.00;;;;;;;26.26;66.91;98397.03;5090361;28;41015;-81
2023/07/12 06:33:59;;;;;;;4.67;2.90;;;;;;;26.19;67.30;98385.34;5090442;28;42706;-83
2023/07/12 06:36:27;;;;;;;8.70;2.83;;;;;;;26.30;67.89;98390.19;5086840;28;43133;-77
2023/07/12 06:38:55;;;;;;;4.47;2.73;;;;;;;26.34;67.51;98388.72;5090112;28;40912;-77
2023/07/12 06:41:24;;;;;;;4.67;3.00;;;;;;;26.39;66.62;98391.66;5089727;28;42952;-76
2023/07/12 06:43:51;;;;;;;5.40;3.07;;;;;;;26.42;66.71;98389.38;5091122;28;42964;-80
2023/07/12 06:46:20;;;;;;;4.47;3.20;;;;;;;26.40;66.99;98388.72;5089864;28;41259;-80
2023/07/12 06:48:48;;;;;;;5.47;3.43;;;;;;;26.42;66.09;98393.97;5089588;28;38837;-78
2023/07/12 06:51:15;;;;;;;5.97;3.60;;;;;;;26.38;66.33;98400.84;5089179;28;40619;-80
2023/07/12 06:53:43;;;;;;;5.37;3.57;;;;;;;26.41;66.37;98400.44;5124164;27;43798;-81
2023/07/12 06:56:11;;;;;;;5.00;3.70;;;;;;;26.52;66.48;98399.81;5090908;28;42234;-83
2023/07/12 06:58:40;;;;;;;5.10;3.40;;;;;;;26.66;66.15;98395.22;5106870;28;39081;-86
2023/07/12 07:01:08;;;;;;;5.13;3.07;;;;;;;26.78;65.91;98388.09;5072329;28;41691;-85
2023/07/12 07:03:37;;;;;;;6.53;3.40;;;;;;;26.75;65.68;98373.03;5073211;28;42476;-81
2023/07/12 07:06:05;;;;;;;5.47;3.07;;;;;;;26.85;65.33;98388.91;5072483;28;42176;-78
2023/07/12 07:08:33;;;;;;;6.20;3.50;;;;;;;26.97;64.80;98392.69;5106698;28;40317;-80
2023/07/12 07:11:02;;;;;;;4.70;3.63;;;;;;;27.16;63.37;98401.88;5090420;28;41927;-82
2023/07/12 07:13:30;;;;;;;7.13;3.63;;;;;;;27.22;63.87;98390.13;5089633;28;41877;-82
2023/07/12 07:16:33;;;;;;;6.03;3.70;;;;;;;27.16;63.30;98391.84;5123581;27;43068;-86
2023/07/12 07:19:05;;;;;;;4.23;3.23;;;;;;;27.23;62.92;98361.06;5089774;28;40043;-82
2023/07/12 07:21:50;;;;;;;4.30;3.23;;;;;;;27.50;62.95;98387.94;5073046;28;42161;-80
2023/07/12 07:24:18;;;;;;;5.00;3.70;;;;;;;27.60;62.25;98403.00;5072353;28;41810;-80
2023/07/12 07:26:46;;;;;;;4.50;3.40;;;;;;;27.24;61.78;98352.69;5068301;28;41143;-83
2023/07/12 07:29:14;;;;;;;4.87;3.73;;;;;;;27.52;61.90;98401.34;5069237;28;41106;-80
2023/07/12 07:31:41;;;;;;;5.20;3.53;;;;;;;27.60;61.75;98412.00;5060273;28;41822;-80
2023/07/12 07:34:11;;;;;;;6.00;4.07;;;;;;;27.65;61.64;98423.09;5072897;28;42044;-81
2023/07/12 07:36:38;;;;;;;5.87;3.70;;;;;;;27.70;61.57;98425.97;5089240;28;41599;-77
2023/07/12 07:39:06;;;;;;;4.13;3.63;;;;;;;27.91;60.94;98435.75;5090562;28;40801;-77
2023/07/12 07:41:33;;;;;;;6.77;4.47;;;;;;;28.02;60.65;98426.88;5090099;28;42735;-79
2023/07/12 07:44:02;;;;;;;7.13;4.20;;;;;;;28.21;59.59;98428.69;5088899;28;41700;-81
2023/07/12 07:46:29;;;;;;;4.77;3.90;;;;;;;28.36;59.20;98435.72;5072109;28;40979;-79
2023/07/12 07:48:57;;;;;;;5.67;3.90;;;;;;;28.57;58.46;98443.50;5089427;28;40111;-79
2023/07/12 07:51:27;;;;;;;7.07;4.50;;;;;;;29.29;56.28;98450.28;5088148;28;41599;-80
2023/07/12 07:53:55;;;;;;;5.70;3.97;;;;;;;30.70;53.20;98466.34;5071706;28;41950;-78
2023/07/12 07:56:22;;;;;;;5.77;4.00;;;;;;;32.38;48.70;98480.06;5088644;28;42405;-78
2023/07/12 07:58:50;;;;;;;4.93;4.03;;;;;;;33.58;45.73;98492.53;5123068;27;39714;-79
2023/07/12 08:01:18;;;;;;;4.53;3.93;;;;;;;34.02;44.89;98495.34;5088619;28;42548;-78
2023/07/12 08:03:45;;;;;;;6.27;4.10;;;;;;;34.18;44.50;98495.28;5088200;28;42945;-80
2023/07/12 08:06:13;;;;;;;4.73;4.20;;;;;;;34.52;43.65;98506.13;5088577;28;42324;-80
2023/07/12 08:08:42;;;;;;;4.53;3.60;;;;;;;34.52;43.83;98479.44;5088944;28;39810;-80
2023/07/12 08:11:10;;;;;;;5.77;4.73;;;;;;;33.97;43.95;98487.06;5089518;28;41953;-79
2023/07/12 08:13:38;;;;;;;10.33;4.43;;;;;;;34.61;43.23;98492.75;5097060;28;43217;-79
2023/07/12 08:16:05;;;;;;;5.53;4.60;;;;;;;36.03;40.43;98510.38;5098589;28;42856;-77
2023/07/12 08:18:33;;;;;;;5.13;4.35;;;;;;;37.60;37.85;98524.47;5092527;28;41091;-77
2023/07/12 08:21:01;;;;;;;6.22;4.78;;;;;;;37.89;36.40;98544.06;5092461;28;42222;-78
2023/07/12 08:23:29;;;;;;;6.18;4.35;;;;;;;38.50;36.14;98528.09;5093341;28;42819;-82
2023/07/12 08:25:58;;;;;;;4.55;4.15;;;;;;;38.06;36.65;98534.34;5092695;28;43125;-81
2023/07/12 08:28:25;;;;;;;5.50;4.13;;;;;;;38.31;36.11;98543.69;5091856;28;39134;-83
2023/07/12 08:30:53;;;;;;;5.35;4.40;;;;;;;37.29;37.37;98540.28;5074572;28;41055;-82
2023/07/12 08:33:21;;;;;;;6.87;4.93;;;;;;;36.51;37.88;98537.63;5074478;28;42136;-79
2023/07/12 08:36:02;;;;;;;5.77;4.97;;;;;;;35.72;38.82;98532.25;5091296;28;42316;-81
2023/07/12 08:38:34;;;;;;;5.28;4.60;;;;;;;36.21;37.83;98510.75;5074499;28;40637;-81
2023/07/12 08:41:16;;;;;;;5.70;5.13;;;;;;;35.61;37.67;98497.44;5073481;28;41592;-82
2023/07/12 08:43:45;;;;;;;7.67;4.73;;;;;;;35.52;38.13;98543.13;5074684;28;43990;-80
2023/07/12 08:46:17;;;;;;;5.03;4.53;;;;;;;35.70;38.80;98526.19;5070583;28;42448;-77
2023/07/12 08:48:45;;;;;;;6.80;5.23;;;;;;;35.14;38.78;98542.25;5071343;28;39538;-85
2023/07/12 08:51:17;;;;;;;5.33;4.40;;;;;;;34.27;39.03;98525.09;5075585;28;42877;-85
2023/07/12 08:53:47;;;;;;;5.87;4.93;;;;;;;33.94;39.60;98504.03;5091877;28;42966;-85
2023/07/12 08:56:18;;;;;;;5.27;4.77;;;;;;;33.98;39.41;98541.75;5107678;28;41497;-79
2023/07/12 08:58:49;;;;;;;5.60;4.90;;;;;;;33.68;40.15;98531.13;5122470;27;40989;-79
2023/07/12 09:01:32;;;;;;;5.70;5.00;;;;;;;33.88;40.59;98517.69;5073749;28;40724;-81
2023/07/12 09:04:00;;;;;;;7.70;4.60;;;;;;;34.29;39.50;98529.25;5088362;28;43768;-78
2023/07/12 09:06:28;;;;;;;5.60;4.90;;;;;;;34.79;38.32;98522.66;5089836;28;41385;-78
2023/07/12 09:08:55;;;;;;;6.17;4.87;;;;;;;35.15;37.90;98543.91;5091067;28;40221;-80
2023/07/12 09:11:30;;;;;;;5.77;4.83;;;;;;;35.08;37.29;98548.81;5107451;28;40629;-79
2023/07/12 09:13:58;;;;;;;5.77;5.13;;;;;;;35.26;37.01;98555.88;5073966;28;43349;-79
2023/07/12 09:16:29;;;;;;;5.50;4.57;;;;;;;34.80;37.14;98557.34;5090574;28;43180;-81
2023/07/12 09:19:00;;;;;;;6.73;5.17;;;;;;;34.18;38.02;98538.44;5091662;28;39783;-81
2023/07/12 09:21:31;;;;;;;6.90;5.07;;;;;;;33.97;38.12;98503.53;5074050;28;40898;-80
2023/07/12 09:24:03;;;;;;;5.70;4.87;;;;;;;34.51;38.06;98543.81;5074169;28;42749;-81
2023/07/12 09:26:34;;;;;;;7.77;5.13;;;;;;;34.83;36.90;98551.34;5073925;28;41459;-84
2023/07/12 09:29:06;;;;;;;5.33;4.83;;;;;;;34.94;37.37;98548.41;5108915;28;38466;-85
2023/07/12 09:31:36;;;;;;;5.20;4.53;;;;;;;35.45;36.64;98550.81;5108474;28;40869;-92
2023/07/12 09:34:07;;;;;;;6.63;5.33;;;;;;;36.44;34.77;98534.31;5074932;28;42674;-86
2023/07/12 09:36:36;;;;;;;5.33;4.83;;;;;;;37.50;34.19;98564.00;5090827;28;42449;-85
2023/07/12 09:39:06;;;;;;;5.22;4.72;;;;;;;37.96;32.69;98573.06;5074393;28;39042;-83
2023/07/12 09:41:36;;;;;;;6.03;4.80;;;;;;;37.75;33.15;98560.41;5090490;28;40723;-85
2023/07/12 09:44:04;;;;;;;5.35;4.90;;;;;;;37.70;33.43;98561.28;5074695;28;43745;-85
2023/07/12 09:46:37;;;;;;;9.43;5.35;;;;;;;37.35;33.57;98561.25;5070112;28;41596;-82
2023/07/12 09:49:12;;;;;;;5.13;4.47;;;;;;;38.08;32.38;98570.88;5053405;28;38976;-84
2023/07/12 09:51:51;;;;;;;5.38;4.88;;;;;;;38.18;31.93;98571.97;5076922;28;41758;-80
2023/07/12 09:54:30;;;;;;;5.55;5.05;;;;;;;37.25;33.01;98570.38;5088708;28;43360;-78
2023/07/12 09:57:03;;;;;;;5.30;4.90;;;;;;;36.32;33.29;98564.06;5089437;28;42362;-77
2023/07/12 09:59:40;;;;;;;6.47;5.23;;;;;;;35.49;33.48;98580.28;5088596;28;42294;-83
2023/07/12 10:02:23;;;;;;;5.90;4.80;;;;;;;34.95;34.67;98565.75;5069922;28;41203;-77
2023/07/12 10:04:54;;;;;;;5.70;5.17;;;;;;;35.52;34.21;98562.41;5068678;28;43645;-79
2023/07/12 10:07:35;;;;;;;6.70;5.43;;;;;;;35.40;34.73;98567.28;5066192;28;41273;-77
2023/07/12 10:10:05;;;;;;;6.20;4.63;;;;;;;35.02;34.96;98560.88;5090654;28;40147;-86
2023/07/12 10:12:41;;;;;;;6.13;4.87;;;;;;;34.63;36.16;98545.56;5090382;28;41502;-86
2023/07/12 10:15:13;;;;;;;6.40;5.37;;;;;;;34.34;37.04;98515.56;5089354;28;43564;-84
2023/07/12 10:17:45;;;;;;;6.10;5.50;;;;;;;34.63;37.44;98551.06;5072752;28;41561;-78
2023/07/12 10:20:19;;;;;;;5.63;5.13;;;;;;;34.65;37.02;98548.91;5087614;28;39601;-79
2023/07/12 10:22:47;;;;;;;6.17;5.57;;;;;;;34.33;37.49;98552.41;5086393;28;42369;-80
2023/07/12 10:25:22;;;;;;;6.20;5.17;;;;;;;33.95;37.73;98538.69;5090568;28;42588;-77
2023/07/12 10:28:03;;;;;;;5.97;5.27;;;;;;;33.57;38.61;98548.53;5120648;27;42457;-82
2023/07/12 10:30:33;;;;;;;7.83;5.20;;;;;;;33.93;38.88;98511.44;5090560;28;39324;-85
2023/07/12 10:33:10;;;;;;;5.37;4.63;;;;;;;34.87;37.83;98530.44;5072998;28;40732;-87
2023/07/12 10:35:45;;;;;;;6.90;5.87;;;;;;;35.66;37.03;98533.31;5088154;28;42609;-83
2023/07/12 10:38:15;;;;;;;6.27;5.23;;;;;;;36.22;34.61;98547.47;5073048;28;43652;-85
2023/07/12 10:40:51;;;;;;;6.00;5.40;;;;;;;36.37;34.52;98549.44;5089450;28;41908;-83
2023/07/12 10:43:26;;;;;;;5.53;5.00;;;;;;;36.01;34.60;98540.97;5089810;28;40989;-82
2023/07/12 10:46:00;;;;;;;5.77;5.27;;;;;;;35.56;35.18;98550.63;5089627;28;42428;-82
2023/07/12 10:48:29;;;;;;;6.27;5.33;;;;;;;35.11;35.41;98537.28;5089650;28;41686;-85
2023/07/12 10:51:16;;;;;;;6.03;5.10;;;;;;;35.22;35.92;98546.47;5072251;28;41057;-83
2023/07/12 10:53:49;;;;;;;5.63;5.00;;;;;;;35.37;35.40;98534.75;5073078;28;41184;-82
2023/07/12 10:56:25;;;;;;;5.93;5.43;;;;;;;35.35;34.58;98553.50;5070614;28;20223;-82
2023/07/12 10:58:57;;;;;;;5.93;5.37;;;;;;;35.73;34.45;98549.63;5086834;28;41045;-83
2023/07/12 11:01:54;;;;;;;6.40;4.90;;;;;;;36.06;34.47;98553.97;5076985;28;40892;-79
2023/07/12 11:04:33;;;;;;;5.20;4.80;;;;;;;36.23;34.04;98547.16;5051514;28;41952;-81
2023/07/12 11:07:03;;;;;;;5.53;5.03;;;;;;;36.30;33.07;98555.22;5086582;28;42715;-82
2023/07/12 11:10:23;;;;;;;6.17;5.23;;;;;;;36.46;33.51;98551.41;5072583;28;42497;-80
2023/07/12 11:12:53;;;;;;;5.20;4.67;;;;;;;36.50;34.04;98537.88;5030836;28;39735;-84
2023/07/12 11:15:25;;;;;;;8.00;5.10;;;;;;;36.58;33.22;98559.44;5087779;28;41728;-80
2023/07/12 11:18:01;;;;;;;5.50;4.97;;;;;;;36.63;33.38;98548.41;5086913;28;42777;-80
2023/07/12 11:20:32;;;;;;;5.85;4.93;;;;;;;36.65;32.76;98544.28;5072438;28;42143;-84
2023/07/12 11:23:22;;;;;;;9.40;4.88;;;;;;;36.65;31.93;98533.25;5089861;28;38619;-84
2023/07/12 11:25:57;;;;;;;5.00;4.60;;;;;;;36.80;31.47;98545.47;5089081;28;40945;-79
2023/07/12 11:28:41;;;;;;;6.28;5.05;;;;;;;36.97;31.07;98549.59;5066011;28;41539;-82
2023/07/12 11:31:26;;;;;;;5.05;4.65;;;;;;;37.12;31.34;98540.50;5072372;28;42060;-79
2023/07/12 11:33:56;;;;;;;5.18;4.68;;;;;;;37.37;31.30;98548.00;5087715;28;40433;-79
2023/07/12 11:36:25;;;;;;;5.65;4.68;;;;;;;37.67;31.11;98544.41;5092430;28;41766;-84
2023/07/12 11:38:55;;;;;;;4.97;4.47;;;;;;;37.87;30.43;98525.00;5064125;28;43204;-81
2023/07/12 11:41:25;;;;;;;5.10;4.60;;;;;;;38.17;30.24;98518.56;5070339;28;43204;-82
2023/07/12 11:44:00;;;;;;;4.53;4.13;;;;;;;38.57;29.47;98550.78;5087715;28;40019;-88
2023/07/12 11:46:38;;;;;;;4.80;4.40;;;;;;;38.94;28.01;98532.84;5073757;28;40582;-85
2023/07/12 11:49:14;;;;;;;4.53;4.18;;;;;;;39.76;27.65;98550.44;5074606;28;43119;-80